sensor_id;sensor_type;location;lat;lon;timestamp;temperature;humidity
3298;DHT22;1661;53.572;10.174;2023-05-10T00:02:15;15.00;57.90
3298;DHT22;1661;53.572;10.174;2023-05-10T00:04:42;15.00;57.70
3298;DHT22;1661;53.572;10.174;2023-05-10T00:07:09;14.90;58.20
3298;DHT22;1661;53.572;10.174;2023-05-10T00:09:36;15.00;58.20
3298;DHT22;1661;53.572;10.174;2023-05-10T00:12:05;15.00;58.20
3298;DHT22;1661;53.572;10.174;2023-05-10T00:14:31;15.00;58.00
3298;DHT22;1661;53.572;10.174;2023-05-10T00:16:58;15.10;57.90
3298;DHT22;1661;53.572;10.174;2023-05-10T00:19:28;14.90;57.80
3298;DHT22;1661;53.572;10.174;2023-05-10T00:21:55;14.90;58.40
3298;DHT22;1661;53.572;10.174;2023-05-10T00:24:25;14.90;58.30
3298;DHT22;1661;53.572;10.174;2023-05-10T00:26:52;14.90;58.30
3298;DHT22;1661;53.572;10.174;2023-05-10T00:29:20;14.90;58.40
3298;DHT22;1661;53.572;10.174;2023-05-10T00:31:47;14.90;58.30
3298;DHT22;1661;53.572;10.174;2023-05-10T00:34:16;14.80;58.40
3298;DHT22;1661;53.572;10.174;2023-05-10T00:36:43;14.80;58.50
3298;DHT22;1661;53.572;10.174;2023-05-10T00:39:09;14.80;58.50
3298;DHT22;1661;53.572;10.174;2023-05-10T00:41:37;14.70;58.50
3298;DHT22;1661;53.572;10.174;2023-05-10T00:44:04;14.70;58.50
3298;DHT22;1661;53.572;10.174;2023-05-10T00:46:32;14.70;59.20
3298;DHT22;1661;53.572;10.174;2023-05-10T00:48:59;14.70;58.70
3298;DHT22;1661;53.572;10.174;2023-05-10T00:51:26;14.60;58.90
3298;DHT22;1661;53.572;10.174;2023-05-10T00:53:54;14.60;59.00
3298;DHT22;1661;53.572;10.174;2023-05-10T00:56:21;14.60;59.20
3298;DHT22;1661;53.572;10.174;2023-05-10T00:58:49;14.60;59.40
3298;DHT22;1661;53.572;10.174;2023-05-10T01:01:16;14.60;59.30
3298;DHT22;1661;53.572;10.174;2023-05-10T01:03:45;14.60;59.20
3298;DHT22;1661;53.572;10.174;2023-05-10T01:06:13;14.60;59.40
3298;DHT22;1661;53.572;10.174;2023-05-10T01:08:42;14.50;59.90
3298;DHT22;1661;53.572;10.174;2023-05-10T01:11:09;14.50;59.70
3298;DHT22;1661;53.572;10.174;2023-05-10T01:13:38;14.50;59.60
3298;DHT22;1661;53.572;10.174;2023-05-10T01:16:06;14.60;59.60
3298;DHT22;1661;53.572;10.174;2023-05-10T01:18:34;14.60;59.40
3298;DHT22;1661;53.572;10.174;2023-05-10T01:21:30;14.60;59.40
3298;DHT22;1661;53.572;10.174;2023-05-10T01:24:17;14.60;59.20
3298;DHT22;1661;53.572;10.174;2023-05-10T01:27:10;14.50;59.40
3298;DHT22;1661;53.572;10.174;2023-05-10T01:32:45;14.40;59.70
3298;DHT22;1661;53.572;10.174;2023-05-10T01:35:18;14.30;59.70
3298;DHT22;1661;53.572;10.174;2023-05-10T01:37:52;14.20;60.20
3298;DHT22;1661;53.572;10.174;2023-05-10T01:40:30;14.30;60.90
3298;DHT22;1661;53.572;10.174;2023-05-10T01:43:02;14.20;60.70
3298;DHT22;1661;53.572;10.174;2023-05-10T01:45:33;14.20;60.80
3298;DHT22;1661;53.572;10.174;2023-05-10T01:48:05;14.20;60.60
3298;DHT22;1661;53.572;10.174;2023-05-10T01:50:34;14.20;60.50
3298;DHT22;1661;53.572;10.174;2023-05-10T01:53:02;14.10;60.50
3298;DHT22;1661;53.572;10.174;2023-05-10T01:55:35;14.20;60.90
3298;DHT22;1661;53.572;10.174;2023-05-10T01:58:05;14.20;60.70
3298;DHT22;1661;53.572;10.174;2023-05-10T02:00:34;14.20;60.70
3298;DHT22;1661;53.572;10.174;2023-05-10T02:03:06;14.10;60.80
3298;DHT22;1661;53.572;10.174;2023-05-10T02:05:34;14.10;61.10
3298;DHT22;1661;53.572;10.174;2023-05-10T02:08:05;14.10;61.00
3298;DHT22;1661;53.572;10.174;2023-05-10T02:10:33;14.10;61.30
3298;DHT22;1661;53.572;10.174;2023-05-10T02:13:02;14.00;61.10
3298;DHT22;1661;53.572;10.174;2023-05-10T02:15:30;14.00;61.20
3298;DHT22;1661;53.572;10.174;2023-05-10T02:17:59;14.00;61.40
3298;DHT22;1661;53.572;10.174;2023-05-10T02:20:29;13.90;61.50
3298;DHT22;1661;53.572;10.174;2023-05-10T02:22:58;13.90;61.60
3298;DHT22;1661;53.572;10.174;2023-05-10T02:25:29;13.80;61.50
3298;DHT22;1661;53.572;10.174;2023-05-10T02:27:57;13.80;61.80
3298;DHT22;1661;53.572;10.174;2023-05-10T02:30:27;13.70;62.10
3298;DHT22;1661;53.572;10.174;2023-05-10T02:32:59;13.70;61.90
3298;DHT22;1661;53.572;10.174;2023-05-10T02:35:28;13.70;62.00
3298;DHT22;1661;53.572;10.174;2023-05-10T02:37:56;13.60;62.10
3298;DHT22;1661;53.572;10.174;2023-05-10T02:40:24;13.60;62.50
3298;DHT22;1661;53.572;10.174;2023-05-10T02:42:54;13.50;62.40
3298;DHT22;1661;53.572;10.174;2023-05-10T02:45:27;13.50;62.80
3298;DHT22;1661;53.572;10.174;2023-05-10T02:47:54;13.50;62.70
3298;DHT22;1661;53.572;10.174;2023-05-10T02:50:22;13.40;63.10
3298;DHT22;1661;53.572;10.174;2023-05-10T02:53:01;13.40;63.40
3298;DHT22;1661;53.572;10.174;2023-05-10T02:55:35;13.30;63.20
3298;DHT22;1661;53.572;10.174;2023-05-10T02:58:07;13.30;63.60
3298;DHT22;1661;53.572;10.174;2023-05-10T03:00:34;13.30;63.60
3298;DHT22;1661;53.572;10.174;2023-05-10T03:03:01;13.30;63.50
3298;DHT22;1661;53.572;10.174;2023-05-10T03:05:28;13.30;63.70
3298;DHT22;1661;53.572;10.174;2023-05-10T03:07:55;13.30;63.60
3298;DHT22;1661;53.572;10.174;2023-05-10T03:10:26;13.30;63.70
3298;DHT22;1661;53.572;10.174;2023-05-10T03:13:05;13.30;63.80
3298;DHT22;1661;53.572;10.174;2023-05-10T03:15:40;13.30;63.90
3298;DHT22;1661;53.572;10.174;2023-05-10T03:18:12;13.30;63.80
3298;DHT22;1661;53.572;10.174;2023-05-10T03:20:47;13.40;63.80
3298;DHT22;1661;53.572;10.174;2023-05-10T03:23:21;13.30;63.80
3298;DHT22;1661;53.572;10.174;2023-05-10T03:25:53;13.30;63.90
3298;DHT22;1661;53.572;10.174;2023-05-10T03:28:21;13.30;63.90
3298;DHT22;1661;53.572;10.174;2023-05-10T03:30:49;13.30;63.90
3298;DHT22;1661;53.572;10.174;2023-05-10T03:33:18;13.30;63.90
3298;DHT22;1661;53.572;10.174;2023-05-10T03:35:45;13.30;64.00
3298;DHT22;1661;53.572;10.174;2023-05-10T03:38:11;13.30;64.00
3298;DHT22;1661;53.572;10.174;2023-05-10T03:40:39;13.30;63.90
3298;DHT22;1661;53.572;10.174;2023-05-10T03:43:07;13.30;64.00
3298;DHT22;1661;53.572;10.174;2023-05-10T03:45:34;13.30;64.10
3298;DHT22;1661;53.572;10.174;2023-05-10T03:48:01;13.30;64.00
3298;DHT22;1661;53.572;10.174;2023-05-10T03:50:30;13.30;64.00
3298;DHT22;1661;53.572;10.174;2023-05-10T03:52:57;13.20;64.10
3298;DHT22;1661;53.572;10.174;2023-05-10T03:55:24;13.10;64.50
3298;DHT22;1661;53.572;10.174;2023-05-10T03:57:51;13.10;64.50
3298;DHT22;1661;53.572;10.174;2023-05-10T04:00:20;13.10;64.50
3298;DHT22;1661;53.572;10.174;2023-05-10T04:02:47;13.10;64.40
3298;DHT22;1661;53.572;10.174;2023-05-10T04:05:14;13.20;64.40
3298;DHT22;1661;53.572;10.174;2023-05-10T04:07:43;13.30;64.20
3298;DHT22;1661;53.572;10.174;2023-05-10T04:10:10;13.30;64.20
3298;DHT22;1661;53.572;10.174;2023-05-10T04:12:37;13.20;64.30
3298;DHT22;1661;53.572;10.174;2023-05-10T04:15:05;13.20;64.50
3298;DHT22;1661;53.572;10.174;2023-05-10T04:17:33;13.20;64.50
3298;DHT22;1661;53.572;10.174;2023-05-10T04:20:00;13.30;64.40
3298;DHT22;1661;53.572;10.174;2023-05-10T04:22:27;13.30;64.50
3298;DHT22;1661;53.572;10.174;2023-05-10T04:24:54;13.30;64.40
3298;DHT22;1661;53.572;10.174;2023-05-10T04:27:21;13.30;64.40
3298;DHT22;1661;53.572;10.174;2023-05-10T04:29:48;13.30;64.40
3298;DHT22;1661;53.572;10.174;2023-05-10T04:32:15;13.30;64.30
3298;DHT22;1661;53.572;10.174;2023-05-10T04:34:47;13.30;64.30
3298;DHT22;1661;53.572;10.174;2023-05-10T04:37:13;13.40;64.20
3298;DHT22;1661;53.572;10.174;2023-05-10T04:39:40;13.40;64.30
3298;DHT22;1661;53.572;10.174;2023-05-10T04:42:07;13.40;64.10
3298;DHT22;1661;53.572;10.174;2023-05-10T04:44:34;13.40;64.30
3298;DHT22;1661;53.572;10.174;2023-05-10T04:47:01;13.40;64.40
3298;DHT22;1661;53.572;10.174;2023-05-10T04:49:28;13.40;64.30
3298;DHT22;1661;53.572;10.174;2023-05-10T04:51:56;13.40;64.40
3298;DHT22;1661;53.572;10.174;2023-05-10T04:54:23;13.40;64.60
3298;DHT22;1661;53.572;10.174;2023-05-10T04:56:51;13.40;64.60
3298;DHT22;1661;53.572;10.174;2023-05-10T04:59:17;13.40;64.60
3298;DHT22;1661;53.572;10.174;2023-05-10T05:01:44;13.40;64.50
3298;DHT22;1661;53.572;10.174;2023-05-10T05:04:11;13.40;64.60
3298;DHT22;1661;53.572;10.174;2023-05-10T05:06:38;13.50;64.60
3298;DHT22;1661;53.572;10.174;2023-05-10T05:09:06;13.50;64.50
3298;DHT22;1661;53.572;10.174;2023-05-10T05:11:32;13.60;64.50
3298;DHT22;1661;53.572;10.174;2023-05-10T05:13:59;13.50;64.40
3298;DHT22;1661;53.572;10.174;2023-05-10T05:16:30;13.50;64.30
3298;DHT22;1661;53.572;10.174;2023-05-10T05:18:56;13.50;64.50
3298;DHT22;1661;53.572;10.174;2023-05-10T05:21:26;13.60;64.50
3298;DHT22;1661;53.572;10.174;2023-05-10T05:23:54;13.50;64.50
3298;DHT22;1661;53.572;10.174;2023-05-10T05:26:22;13.60;64.80
3298;DHT22;1661;53.572;10.174;2023-05-10T05:28:52;13.60;64.90
3298;DHT22;1661;53.572;10.174;2023-05-10T05:31:20;13.60;64.70
3298;DHT22;1661;53.572;10.174;2023-05-10T05:33:47;13.70;64.50
3298;DHT22;1661;53.572;10.174;2023-05-10T05:36:14;13.80;64.40
3298;DHT22;1661;53.572;10.174;2023-05-10T05:38:41;13.80;64.10
3298;DHT22;1661;53.572;10.174;2023-05-10T05:41:08;14.00;64.00
3298;DHT22;1661;53.572;10.174;2023-05-10T05:43:36;14.10;63.50
3298;DHT22;1661;53.572;10.174;2023-05-10T05:46:03;14.10;63.50
3298;DHT22;1661;53.572;10.174;2023-05-10T05:48:30;14.20;63.30
3298;DHT22;1661;53.572;10.174;2023-05-10T05:50:57;14.30;63.00
3298;DHT22;1661;53.572;10.174;2023-05-10T05:53:27;14.40;62.60
3298;DHT22;1661;53.572;10.174;2023-05-10T05:55:54;14.50;62.60
3298;DHT22;1661;53.572;10.174;2023-05-10T05:58:21;14.60;62.00
3298;DHT22;1661;53.572;10.174;2023-05-10T06:00:50;14.60;61.80
3298;DHT22;1661;53.572;10.174;2023-05-10T06:03:17;14.70;61.60
3298;DHT22;1661;53.572;10.174;2023-05-10T06:05:47;14.80;61.60
3298;DHT22;1661;53.572;10.174;2023-05-10T06:08:14;14.90;61.60
3298;DHT22;1661;53.572;10.174;2023-05-10T06:10:41;15.00;61.30
3298;DHT22;1661;53.572;10.174;2023-05-10T06:13:15;15.00;60.90
3298;DHT22;1661;53.572;10.174;2023-05-10T06:15:41;15.10;61.20
3298;DHT22;1661;53.572;10.174;2023-05-10T06:18:12;15.30;61.20
3298;DHT22;1661;53.572;10.174;2023-05-10T06:20:38;15.40;60.40
3298;DHT22;1661;53.572;10.174;2023-05-10T06:23:07;15.60;60.40
3298;DHT22;1661;53.572;10.174;2023-05-10T06:25:34;15.70;59.60
3298;DHT22;1661;53.572;10.174;2023-05-10T06:28:01;15.70;59.40
3298;DHT22;1661;53.572;10.174;2023-05-10T06:30:27;15.70;59.50
3298;DHT22;1661;53.572;10.174;2023-05-10T06:32:56;15.80;59.50
3298;DHT22;1661;53.572;10.174;2023-05-10T06:35:25;16.00;59.40
3298;DHT22;1661;53.572;10.174;2023-05-10T06:37:51;16.10;59.00
3298;DHT22;1661;53.572;10.174;2023-05-10T06:40:18;16.20;58.90
3298;DHT22;1661;53.572;10.174;2023-05-10T06:42:48;16.30;58.20
3298;DHT22;1661;53.572;10.174;2023-05-10T06:45:15;16.50;57.90
3298;DHT22;1661;53.572;10.174;2023-05-10T06:47:42;16.60;57.50
3298;DHT22;1661;53.572;10.174;2023-05-10T06:50:10;16.80;58.30
3298;DHT22;1661;53.572;10.174;2023-05-10T06:52:39;16.90;57.40
3298;DHT22;1661;53.572;10.174;2023-05-10T06:55:06;17.00;56.90
3298;DHT22;1661;53.572;10.174;2023-05-10T06:57:34;17.20;56.80
3298;DHT22;1661;53.572;10.174;2023-05-10T07:00:01;17.40;56.70
3298;DHT22;1661;53.572;10.174;2023-05-10T07:02:29;17.50;56.30
3298;DHT22;1661;53.572;10.174;2023-05-10T07:04:56;17.60;55.70
3298;DHT22;1661;53.572;10.174;2023-05-10T07:07:23;17.60;55.50
3298;DHT22;1661;53.572;10.174;2023-05-10T07:09:51;17.50;56.00
3298;DHT22;1661;53.572;10.174;2023-05-10T07:12:18;17.50;55.50
3298;DHT22;1661;53.572;10.174;2023-05-10T07:14:45;17.60;56.20
3298;DHT22;1661;53.572;10.174;2023-05-10T07:17:12;17.70;55.60
3298;DHT22;1661;53.572;10.174;2023-05-10T07:19:41;17.80;55.40
3298;DHT22;1661;53.572;10.174;2023-05-10T07:22:08;18.00;55.30
3298;DHT22;1661;53.572;10.174;2023-05-10T07:24:35;18.00;55.10
3298;DHT22;1661;53.572;10.174;2023-05-10T07:27:03;18.00;54.80
3298;DHT22;1661;53.572;10.174;2023-05-10T07:29:32;18.10;54.60
3298;DHT22;1661;53.572;10.174;2023-05-10T07:31:59;18.10;54.80
3298;DHT22;1661;53.572;10.174;2023-05-10T07:34:26;18.30;54.30
3298;DHT22;1661;53.572;10.174;2023-05-10T07:36:53;18.20;54.30
3298;DHT22;1661;53.572;10.174;2023-05-10T07:39:20;18.10;54.50
3298;DHT22;1661;53.572;10.174;2023-05-10T07:41:47;18.00;54.90
3298;DHT22;1661;53.572;10.174;2023-05-10T07:44:15;18.10;55.30
3298;DHT22;1661;53.572;10.174;2023-05-10T07:46:44;18.20;54.30
3298;DHT22;1661;53.572;10.174;2023-05-10T07:49:10;18.20;55.10
3298;DHT22;1661;53.572;10.174;2023-05-10T07:51:37;18.30;54.30
3298;DHT22;1661;53.572;10.174;2023-05-10T07:54:07;18.50;55.20
3298;DHT22;1661;53.572;10.174;2023-05-10T07:56:34;18.70;54.10
3298;DHT22;1661;53.572;10.174;2023-05-10T07:59:02;18.90;54.10
3298;DHT22;1661;53.572;10.174;2023-05-10T08:01:34;19.00;53.70
3298;DHT22;1661;53.572;10.174;2023-05-10T08:04:01;19.00;52.80
3298;DHT22;1661;53.572;10.174;2023-05-10T08:06:28;19.00;53.60
3298;DHT22;1661;53.572;10.174;2023-05-10T08:08:55;19.00;52.90
3298;DHT22;1661;53.572;10.174;2023-05-10T08:11:23;19.00;52.40
3298;DHT22;1661;53.572;10.174;2023-05-10T08:13:50;19.00;52.50
3298;DHT22;1661;53.572;10.174;2023-05-10T08:16:18;19.00;52.70
3298;DHT22;1661;53.572;10.174;2023-05-10T08:18:49;19.00;52.60
3298;DHT22;1661;53.572;10.174;2023-05-10T08:21:16;19.00;52.70
3298;DHT22;1661;53.572;10.174;2023-05-10T08:23:43;18.90;52.60
3298;DHT22;1661;53.572;10.174;2023-05-10T08:26:10;18.70;53.20
3298;DHT22;1661;53.572;10.174;2023-05-10T08:28:40;18.60;53.40
3298;DHT22;1661;53.572;10.174;2023-05-10T08:31:06;18.60;54.20
3298;DHT22;1661;53.572;10.174;2023-05-10T08:33:33;18.70;54.80
3298;DHT22;1661;53.572;10.174;2023-05-10T08:36:01;18.80;53.90
3298;DHT22;1661;53.572;10.174;2023-05-10T08:38:28;18.90;54.20
3298;DHT22;1661;53.572;10.174;2023-05-10T08:40:55;19.00;54.00
3298;DHT22;1661;53.572;10.174;2023-05-10T08:43:26;19.10;54.40
3298;DHT22;1661;53.572;10.174;2023-05-10T08:45:56;19.20;53.20
3298;DHT22;1661;53.572;10.174;2023-05-10T08:48:27;19.20;53.00
3298;DHT22;1661;53.572;10.174;2023-05-10T08:50:57;19.20;53.10
3298;DHT22;1661;53.572;10.174;2023-05-10T08:53:27;19.20;53.60
3298;DHT22;1661;53.572;10.174;2023-05-10T08:55:58;19.20;53.30
3298;DHT22;1661;53.572;10.174;2023-05-10T08:58:31;19.20;53.30
3298;DHT22;1661;53.572;10.174;2023-05-10T09:00:58;19.20;53.50
3298;DHT22;1661;53.572;10.174;2023-05-10T09:03:28;19.30;53.80
3298;DHT22;1661;53.572;10.174;2023-05-10T09:05:56;19.50;53.40
3298;DHT22;1661;53.572;10.174;2023-05-10T09:08:23;19.60;52.60
3298;DHT22;1661;53.572;10.174;2023-05-10T09:10:52;19.60;53.00
3298;DHT22;1661;53.572;10.174;2023-05-10T09:13:21;19.50;52.70
3298;DHT22;1661;53.572;10.174;2023-05-10T09:15:48;19.50;53.30
3298;DHT22;1661;53.572;10.174;2023-05-10T09:18:15;19.50;53.30
3298;DHT22;1661;53.572;10.174;2023-05-10T09:20:42;19.60;54.20
3298;DHT22;1661;53.572;10.174;2023-05-10T09:23:09;19.60;53.70
3298;DHT22;1661;53.572;10.174;2023-05-10T09:25:35;19.60;53.70
3298;DHT22;1661;53.572;10.174;2023-05-10T09:28:10;19.60;54.90
3298;DHT22;1661;53.572;10.174;2023-05-10T09:30:40;19.60;54.20
3298;DHT22;1661;53.572;10.174;2023-05-10T09:33:11;19.60;54.90
3298;DHT22;1661;53.572;10.174;2023-05-10T09:35:38;19.60;54.70
3298;DHT22;1661;53.572;10.174;2023-05-10T09:38:05;19.60;55.00
3298;DHT22;1661;53.572;10.174;2023-05-10T09:40:32;19.50;54.40
3298;DHT22;1661;53.572;10.174;2023-05-10T09:43:00;19.40;54.60
3298;DHT22;1661;53.572;10.174;2023-05-10T09:45:30;19.40;55.60
3298;DHT22;1661;53.572;10.174;2023-05-10T09:47:57;19.40;55.30
3298;DHT22;1661;53.572;10.174;2023-05-10T09:50:25;19.40;55.60
3298;DHT22;1661;53.572;10.174;2023-05-10T09:52:53;19.50;55.90
3298;DHT22;1661;53.572;10.174;2023-05-10T09:55:21;19.50;55.80
3298;DHT22;1661;53.572;10.174;2023-05-10T09:57:49;19.40;55.00
3298;DHT22;1661;53.572;10.174;2023-05-10T10:00:18;19.30;55.70
3298;DHT22;1661;53.572;10.174;2023-05-10T10:02:48;19.30;56.00
3298;DHT22;1661;53.572;10.174;2023-05-10T10:05:20;19.10;55.50
3298;DHT22;1661;53.572;10.174;2023-05-10T10:07:47;19.00;56.50
3298;DHT22;1661;53.572;10.174;2023-05-10T10:10:16;18.90;57.00
3298;DHT22;1661;53.572;10.174;2023-05-10T10:12:43;18.80;57.70
3298;DHT22;1661;53.572;10.174;2023-05-10T10:15:10;18.80;57.90
3298;DHT22;1661;53.572;10.174;2023-05-10T10:17:37;18.70;59.50
3298;DHT22;1661;53.572;10.174;2023-05-10T10:20:07;18.70;60.40
3298;DHT22;1661;53.572;10.174;2023-05-10T10:22:35;18.70;60.90
3298;DHT22;1661;53.572;10.174;2023-05-10T10:25:04;18.60;61.80
3298;DHT22;1661;53.572;10.174;2023-05-10T10:27:39;18.60;63.00
3298;DHT22;1661;53.572;10.174;2023-05-10T10:30:16;18.60;65.10
3298;DHT22;1661;53.572;10.174;2023-05-10T10:32:59;18.50;66.30
3298;DHT22;1661;53.572;10.174;2023-05-10T10:35:29;18.40;67.90
3298;DHT22;1661;53.572;10.174;2023-05-10T10:37:57;18.20;69.10
3298;DHT22;1661;53.572;10.174;2023-05-10T10:40:26;18.00;70.10
3298;DHT22;1661;53.572;10.174;2023-05-10T10:42:53;17.90;70.90
3298;DHT22;1661;53.572;10.174;2023-05-10T10:45:21;17.70;71.70
3298;DHT22;1661;53.572;10.174;2023-05-10T10:47:48;17.50;72.80
3298;DHT22;1661;53.572;10.174;2023-05-10T10:50:17;17.40;73.10
3298;DHT22;1661;53.572;10.174;2023-05-10T10:52:47;17.40;73.90
3298;DHT22;1661;53.572;10.174;2023-05-10T10:55:17;17.30;74.70
3298;DHT22;1661;53.572;10.174;2023-05-10T10:57:49;17.30;74.50
3298;DHT22;1661;53.572;10.174;2023-05-10T11:00:25;17.10;74.80
3298;DHT22;1661;53.572;10.174;2023-05-10T11:02:53;17.10;75.70
3298;DHT22;1661;53.572;10.174;2023-05-10T11:05:24;17.10;75.50
3298;DHT22;1661;53.572;10.174;2023-05-10T11:07:56;17.10;75.60
3298;DHT22;1661;53.572;10.174;2023-05-10T11:10:24;17.00;76.60
3298;DHT22;1661;53.572;10.174;2023-05-10T11:12:52;17.10;76.60
3298;DHT22;1661;53.572;10.174;2023-05-10T11:15:19;17.10;77.20
3298;DHT22;1661;53.572;10.174;2023-05-10T11:17:48;17.20;77.30
3298;DHT22;1661;53.572;10.174;2023-05-10T11:20:17;17.20;77.20
3298;DHT22;1661;53.572;10.174;2023-05-10T11:23:10;17.20;78.00
3298;DHT22;1661;53.572;10.174;2023-05-10T11:25:41;17.20;77.10
3298;DHT22;1661;53.572;10.174;2023-05-10T11:28:08;17.20;75.90
3298;DHT22;1661;53.572;10.174;2023-05-10T11:30:36;17.30;76.40
3298;DHT22;1661;53.572;10.174;2023-05-10T11:33:06;17.30;76.90
3298;DHT22;1661;53.572;10.174;2023-05-10T11:35:37;17.30;77.00
3298;DHT22;1661;53.572;10.174;2023-05-10T11:38:07;17.30;77.20
3298;DHT22;1661;53.572;10.174;2023-05-10T11:40:34;17.30;77.80
3298;DHT22;1661;53.572;10.174;2023-05-10T11:43:01;17.30;78.20
3298;DHT22;1661;53.572;10.174;2023-05-10T11:45:32;17.20;77.80
3298;DHT22;1661;53.572;10.174;2023-05-10T11:47:59;17.20;78.00
3298;DHT22;1661;53.572;10.174;2023-05-10T11:50:27;17.20;78.40
3298;DHT22;1661;53.572;10.174;2023-05-10T11:52:55;17.20;79.40
3298;DHT22;1661;53.572;10.174;2023-05-10T11:55:24;17.30;79.00
3298;DHT22;1661;53.572;10.174;2023-05-10T11:57:52;17.30;78.80
3298;DHT22;1661;53.572;10.174;2023-05-10T12:00:28;17.10;78.30
3298;DHT22;1661;53.572;10.174;2023-05-10T12:02:55;17.10;79.30
3298;DHT22;1661;53.572;10.174;2023-05-10T12:05:22;17.20;78.80
3298;DHT22;1661;53.572;10.174;2023-05-10T12:07:49;17.10;78.40
3298;DHT22;1661;53.572;10.174;2023-05-10T12:10:24;17.10;79.00
3298;DHT22;1661;53.572;10.174;2023-05-10T12:12:53;17.20;79.30
3298;DHT22;1661;53.572;10.174;2023-05-10T12:15:21;17.10;78.90
3298;DHT22;1661;53.572;10.174;2023-05-10T12:17:48;17.10;79.50
3298;DHT22;1661;53.572;10.174;2023-05-10T12:20:20;17.10;79.50
3298;DHT22;1661;53.572;10.174;2023-05-10T12:22:49;17.20;79.00
3298;DHT22;1661;53.572;10.174;2023-05-10T12:25:16;17.20;79.30
3298;DHT22;1661;53.572;10.174;2023-05-10T12:27:55;17.30;79.80
3298;DHT22;1661;53.572;10.174;2023-05-10T12:30:23;17.30;78.50
3298;DHT22;1661;53.572;10.174;2023-05-10T12:32:50;17.40;78.90
3298;DHT22;1661;53.572;10.174;2023-05-10T12:35:20;17.40;79.00
3298;DHT22;1661;53.572;10.174;2023-05-10T12:37:50;17.30;78.70
3298;DHT22;1661;53.572;10.174;2023-05-10T12:40:20;17.30;78.90
3298;DHT22;1661;53.572;10.174;2023-05-10T12:42:47;17.40;79.10
3298;DHT22;1661;53.572;10.174;2023-05-10T12:45:17;17.40;79.30
3298;DHT22;1661;53.572;10.174;2023-05-10T12:47:44;17.60;79.60
3298;DHT22;1661;53.572;10.174;2023-05-10T12:50:11;17.60;79.50
3298;DHT22;1661;53.572;10.174;2023-05-10T12:52:38;17.60;79.20
3298;DHT22;1661;53.572;10.174;2023-05-10T12:55:05;17.70;78.40
3298;DHT22;1661;53.572;10.174;2023-05-10T12:57:32;17.70;78.50
3298;DHT22;1661;53.572;10.174;2023-05-10T12:59:59;17.80;79.50
3298;DHT22;1661;53.572;10.174;2023-05-10T13:02:30;17.80;79.60
3298;DHT22;1661;53.572;10.174;2023-05-10T13:04:57;17.90;79.40
3298;DHT22;1661;53.572;10.174;2023-05-10T13:07:24;18.00;78.50
3298;DHT22;1661;53.572;10.174;2023-05-10T13:09:50;18.00;79.10
3298;DHT22;1661;53.572;10.174;2023-05-10T13:12:20;18.10;78.50
3298;DHT22;1661;53.572;10.174;2023-05-10T13:14:47;18.10;78.00
3298;DHT22;1661;53.572;10.174;2023-05-10T13:17:13;18.10;78.30
3298;DHT22;1661;53.572;10.174;2023-05-10T13:19:41;18.10;78.30
3298;DHT22;1661;53.572;10.174;2023-05-10T13:22:11;18.20;78.70
3298;DHT22;1661;53.572;10.174;2023-05-10T13:24:38;18.30;78.50
3298;DHT22;1661;53.572;10.174;2023-05-10T13:27:05;18.30;78.30
3298;DHT22;1661;53.572;10.174;2023-05-10T13:29:32;18.30;77.50
3298;DHT22;1661;53.572;10.174;2023-05-10T13:31:58;18.40;77.50
3298;DHT22;1661;53.572;10.174;2023-05-10T13:34:25;18.50;77.60
3298;DHT22;1661;53.572;10.174;2023-05-10T13:36:54;18.50;77.70
3298;DHT22;1661;53.572;10.174;2023-05-10T13:39:21;18.50;77.80
3298;DHT22;1661;53.572;10.174;2023-05-10T13:41:48;18.50;77.00
3298;DHT22;1661;53.572;10.174;2023-05-10T13:44:15;18.60;76.80
3298;DHT22;1661;53.572;10.174;2023-05-10T13:46:45;18.60;76.90
3298;DHT22;1661;53.572;10.174;2023-05-10T13:49:11;18.70;77.50
3298;DHT22;1661;53.572;10.174;2023-05-10T13:51:41;18.70;77.00
3298;DHT22;1661;53.572;10.174;2023-05-10T13:54:10;18.70;76.90
3298;DHT22;1661;53.572;10.174;2023-05-10T13:56:37;18.80;76.30
3298;DHT22;1661;53.572;10.174;2023-05-10T13:59:09;18.80;76.30
3298;DHT22;1661;53.572;10.174;2023-05-10T14:01:36;18.80;75.50
3298;DHT22;1661;53.572;10.174;2023-05-10T14:04:06;19.00;76.00
3298;DHT22;1661;53.572;10.174;2023-05-10T14:06:35;19.00;75.80
3298;DHT22;1661;53.572;10.174;2023-05-10T14:09:02;19.00;75.20
3298;DHT22;1661;53.572;10.174;2023-05-10T14:11:30;19.10;74.90
3298;DHT22;1661;53.572;10.174;2023-05-10T14:14:00;19.10;75.10
3298;DHT22;1661;53.572;10.174;2023-05-10T14:16:29;19.10;74.40
3298;DHT22;1661;53.572;10.174;2023-05-10T14:18:56;19.20;74.60
3298;DHT22;1661;53.572;10.174;2023-05-10T14:21:23;19.30;74.60
3298;DHT22;1661;53.572;10.174;2023-05-10T14:23:50;19.40;73.70
3298;DHT22;1661;53.572;10.174;2023-05-10T14:26:16;19.50;72.90
3298;DHT22;1661;53.572;10.174;2023-05-10T14:28:48;19.40;72.20
3298;DHT22;1661;53.572;10.174;2023-05-10T14:31:14;19.40;72.50
3298;DHT22;1661;53.572;10.174;2023-05-10T14:33:45;19.50;72.40
3298;DHT22;1661;53.572;10.174;2023-05-10T14:36:12;19.50;73.00
3298;DHT22;1661;53.572;10.174;2023-05-10T14:38:41;19.50;72.90
3298;DHT22;1661;53.572;10.174;2023-05-10T14:41:10;19.50;73.40
3298;DHT22;1661;53.572;10.174;2023-05-10T14:43:40;19.40;72.70
3298;DHT22;1661;53.572;10.174;2023-05-10T14:46:10;19.40;72.40
3298;DHT22;1661;53.572;10.174;2023-05-10T14:48:37;19.40;72.70
3298;DHT22;1661;53.572;10.174;2023-05-10T14:51:04;19.40;73.00
3298;DHT22;1661;53.572;10.174;2023-05-10T14:53:30;19.40;72.80
3298;DHT22;1661;53.572;10.174;2023-05-10T14:55:58;19.40;73.40
3298;DHT22;1661;53.572;10.174;2023-05-10T14:58:26;19.50;72.90
3298;DHT22;1661;53.572;10.174;2023-05-10T15:00:53;19.50;72.00
3298;DHT22;1661;53.572;10.174;2023-05-10T15:03:24;19.40;71.50
3298;DHT22;1661;53.572;10.174;2023-05-10T15:05:53;19.30;72.00
3298;DHT22;1661;53.572;10.174;2023-05-10T15:08:21;19.30;72.50
3298;DHT22;1661;53.572;10.174;2023-05-10T15:10:49;19.30;73.00
3298;DHT22;1661;53.572;10.174;2023-05-10T15:13:16;19.40;73.20
3298;DHT22;1661;53.572;10.174;2023-05-10T15:15:42;19.40;72.00
3298;DHT22;1661;53.572;10.174;2023-05-10T15:18:09;19.40;72.80
3298;DHT22;1661;53.572;10.174;2023-05-10T15:20:38;19.40;71.80
3298;DHT22;1661;53.572;10.174;2023-05-10T15:23:04;19.40;71.60
3298;DHT22;1661;53.572;10.174;2023-05-10T15:25:31;19.40;71.60
3298;DHT22;1661;53.572;10.174;2023-05-10T15:28:00;19.50;71.80
3298;DHT22;1661;53.572;10.174;2023-05-10T15:30:27;19.50;72.00
3298;DHT22;1661;53.572;10.174;2023-05-10T15:32:54;19.50;71.90
3298;DHT22;1661;53.572;10.174;2023-05-10T15:35:21;19.60;71.70
3298;DHT22;1661;53.572;10.174;2023-05-10T15:37:49;19.70;72.30
3298;DHT22;1661;53.572;10.174;2023-05-10T15:40:16;19.80;71.90
3298;DHT22;1661;53.572;10.174;2023-05-10T15:42:43;19.80;71.20
3298;DHT22;1661;53.572;10.174;2023-05-10T15:45:10;19.90;70.40
3298;DHT22;1661;53.572;10.174;2023-05-10T15:47:37;19.80;70.40
3298;DHT22;1661;53.572;10.174;2023-05-10T15:50:06;19.80;70.40
3298;DHT22;1661;53.572;10.174;2023-05-10T15:52:33;19.80;70.70
3298;DHT22;1661;53.572;10.174;2023-05-10T15:55:02;19.80;71.00
3298;DHT22;1661;53.572;10.174;2023-05-10T15:57:29;19.80;70.90